createdAt,value
2018-08-28T00:01:41.032Z,94.50
2018-08-28T00:04:11.490Z,94.50
2018-08-28T00:06:41.801Z,94.90
2018-08-28T00:09:12.109Z,94.50
2018-08-28T00:11:42.773Z,94.20
2018-08-28T00:14:13.390Z,94.50
2018-08-28T00:16:44.781Z,94.50
2018-08-28T00:19:15.543Z,94.60
2018-08-28T00:21:46.898Z,94.40
2018-08-28T00:24:17.132Z,94.10
2018-08-28T00:26:47.442Z,94.20
2018-08-28T00:29:17.736Z,94.00
2018-08-28T00:31:49.862Z,94.00
2018-08-28T00:34:21.105Z,94.10
2018-08-28T00:36:51.410Z,94.30
2018-08-28T00:39:22.388Z,94.50
2018-08-28T00:41:53.021Z,94.60
2018-08-28T00:44:23.400Z,94.50
2018-08-28T00:46:53.652Z,94.40
2018-08-28T00:49:24.798Z,94.40
2018-08-28T00:51:55.700Z,94.60
2018-08-28T00:54:26.143Z,94.80
2018-08-28T00:56:56.382Z,94.70
2018-08-28T00:59:27.609Z,94.90
2018-08-28T01:01:57.945Z,95.00
2018-08-28T01:04:28.289Z,95.00
2018-08-28T01:06:58.654Z,95.00
2018-08-28T01:09:30.458Z,94.90
2018-08-28T01:12:00.883Z,94.90
2018-08-28T01:14:31.487Z,94.90
2018-08-28T01:17:02.560Z,95.10
2018-08-28T01:19:32.916Z,94.80
2018-08-28T01:22:03.208Z,94.80
2018-08-28T01:24:33.513Z,94.70
2018-08-28T01:27:04.460Z,95.00
2018-08-28T01:29:35.645Z,95.50
2018-08-28T01:32:07.005Z,95.50
2018-08-28T01:34:37.333Z,95.40
2018-08-28T01:37:08.007Z,95.40
2018-08-28T01:39:38.398Z,95.30
2018-08-28T01:42:08.821Z,95.10
2018-08-28T01:44:40.972Z,95.00
2018-08-28T01:47:11.336Z,94.70
2018-08-28T01:49:41.663Z,94.60
2018-08-28T01:52:12.108Z,94.90
2018-08-28T01:54:42.410Z,94.80
2018-08-28T01:57:12.728Z,94.80
2018-08-28T01:59:43.113Z,94.90
2018-08-28T02:02:13.618Z,94.90
2018-08-28T02:04:44.001Z,94.70
2018-08-28T02:07:14.921Z,94.70
2018-08-28T02:09:46.105Z,94.80
2018-08-28T02:12:16.521Z,94.80
2018-08-28T02:14:46.832Z,94.70
2018-08-28T02:17:17.121Z,94.80
2018-08-28T02:19:47.663Z,94.80
2018-08-28T02:22:18.014Z,94.90
2018-08-28T02:24:48.431Z,95.20
2018-08-28T02:27:18.733Z,95.60
2018-08-28T02:29:49.062Z,95.90
2018-08-28T02:32:19.354Z,96.10
2018-08-28T02:34:49.868Z,96.10
2018-08-28T02:37:20.168Z,96.00
2018-08-28T02:39:50.442Z,96.10
2018-08-28T02:42:20.866Z,96.10
2018-08-28T02:44:52.173Z,96.10
2018-08-28T02:47:22.516Z,96.10
2018-08-28T02:49:53.796Z,96.30
2018-08-28T02:52:24.261Z,96.80
2018-08-28T02:54:54.673Z,97.10
2018-08-28T02:57:25.017Z,97.30
2018-08-28T02:59:55.346Z,97.40
2018-08-28T03:02:26.441Z,97.50
2018-08-28T03:04:56.801Z,97.30
2018-08-28T03:07:27.316Z,97.10
2018-08-28T03:09:57.575Z,97.00
2018-08-28T03:12:27.942Z,96.90
2018-08-28T03:14:58.560Z,97.00
2018-08-28T03:17:29.042Z,97.00
2018-08-28T03:19:59.333Z,97.10
2018-08-28T03:22:30.229Z,97.10
2018-08-28T03:25:01.158Z,97.20
2018-08-28T03:27:31.561Z,97.10
2018-08-28T03:30:02.614Z,96.90
2018-08-28T03:32:33.057Z,96.70
2018-08-28T03:35:04.475Z,96.80
2018-08-28T03:37:36.077Z,96.80
2018-08-28T03:40:07.985Z,96.60
2018-08-28T03:42:38.705Z,96.80
2018-08-28T03:45:09.109Z,96.70
2018-08-28T03:47:39.615Z,96.80
2018-08-28T03:50:10.031Z,96.90
2018-08-28T03:52:41.571Z,96.90
2018-08-28T03:55:11.929Z,96.90
2018-08-28T03:57:42.261Z,96.50
2018-08-28T04:00:16.040Z,96.60
2018-08-28T04:02:46.984Z,96.70
2018-08-28T04:05:17.421Z,96.70
2018-08-28T04:07:47.842Z,96.80
2018-08-28T04:10:18.250Z,96.70
2018-08-28T04:12:49.153Z,97.20
2018-08-28T04:15:19.462Z,97.00
2018-08-28T04:17:50.963Z,96.90
2018-08-28T04:20:22.192Z,96.80
2018-08-28T04:22:52.601Z,96.80
2018-08-28T04:25:22.950Z,96.40
2018-08-28T04:27:53.858Z,96.70
2018-08-28T04:30:24.245Z,96.70
2018-08-28T04:32:54.535Z,96.90
2018-08-28T04:35:24.911Z,96.60
2018-08-28T04:37:57.147Z,96.70
2018-08-28T04:40:27.441Z,96.80
2018-08-28T04:42:58.012Z,96.40
2018-08-28T04:45:28.772Z,96.10
2018-08-28T04:47:59.173Z,96.20
2018-08-28T04:50:30.204Z,96.30
2018-08-28T04:53:14.289Z,96.20
2018-08-28T04:55:47.620Z,96.40
2018-08-28T04:58:22.414Z,96.00
2018-08-28T05:03:29.080Z,95.90
2018-08-28T05:05:59.417Z,96.00
2018-08-28T05:08:30.770Z,96.00
2018-08-28T05:11:01.097Z,95.70
2018-08-28T05:13:31.537Z,95.40
2018-08-28T05:16:02.199Z,95.40
2018-08-28T05:18:32.815Z,95.40
2018-08-28T05:21:03.157Z,95.40
2018-08-28T05:23:33.518Z,95.60
2018-08-28T05:26:04.283Z,95.70
2018-08-28T05:28:34.871Z,95.60
2018-08-28T05:31:05.197Z,95.50
2018-08-28T05:33:36.096Z,95.90
2018-08-28T05:36:06.497Z,94.90
2018-08-28T05:38:36.797Z,95.00
2018-08-28T05:41:07.930Z,95.20
2018-08-28T05:43:39.057Z,95.30
2018-08-28T05:46:10.165Z,94.70
2018-08-28T05:48:40.956Z,94.90
2018-08-28T05:51:11.434Z,95.00
2018-08-28T05:53:44.109Z,95.20
2018-08-28T05:56:14.408Z,95.20
2018-08-28T05:58:47.076Z,95.30
2018-08-28T06:01:20.599Z,95.20
2018-08-28T06:03:51.764Z,95.30
2018-08-28T06:06:22.512Z,95.30
2018-08-28T06:08:52.964Z,95.30
2018-08-28T06:11:23.365Z,95.20
2018-08-28T06:14:00.812Z,95.00
2018-08-28T06:16:31.124Z,94.90
2018-08-28T06:19:18.016Z,94.90
2018-08-28T06:21:57.190Z,94.60
2018-08-28T06:24:32.761Z,94.30
2018-08-28T06:27:05.868Z,94.20
2018-08-28T06:29:37.800Z,94.00
2018-08-28T06:32:08.449Z,94.40
2018-08-28T06:37:32.370Z,94.50
2018-08-28T06:40:03.903Z,94.60
2018-08-28T06:42:34.375Z,94.60
2018-08-28T06:45:05.954Z,94.70
2018-08-28T06:47:37.494Z,95.10
2018-08-28T06:50:10.341Z,95.10
2018-08-28T06:52:54.643Z,94.90
2018-08-28T06:55:37.589Z,95.10
2018-08-28T07:00:46.514Z,95.20
2018-08-28T07:03:23.861Z,95.60
2018-08-28T07:05:56.274Z,95.50
2018-08-28T07:11:12.212Z,95.10
2018-08-28T07:13:45.878Z,95.40
2018-08-28T07:16:17.487Z,95.40
2018-08-28T07:18:47.976Z,95.20
2018-08-28T07:21:19.250Z,95.20
2018-08-28T07:23:50.476Z,95.20
2018-08-28T07:26:20.968Z,95.80
2018-08-28T07:28:52.147Z,95.30
2018-08-28T07:31:22.561Z,94.80
2018-08-28T07:33:54.151Z,94.80
2018-08-28T07:36:24.470Z,95.00
2018-08-28T07:38:54.781Z,94.70
2018-08-28T07:41:25.208Z,94.90
2018-08-28T07:43:55.585Z,94.00
2018-08-28T07:46:27.685Z,93.60
2018-08-28T07:48:59.769Z,93.10
2018-08-28T07:51:33.672Z,93.00
2018-08-28T07:54:04.347Z,92.70
2018-08-28T07:56:35.316Z,92.40
2018-08-28T07:59:05.861Z,91.70
2018-08-28T08:01:57.141Z,91.80
2018-08-28T08:04:32.638Z,91.60
2018-08-28T08:07:03.318Z,91.40
2018-08-28T08:09:35.028Z,90.90
2018-08-28T08:12:06.117Z,90.80
2018-08-28T08:14:39.458Z,90.40
2018-08-28T08:17:12.228Z,89.70
2018-08-28T08:19:42.981Z,90.00
2018-08-28T08:22:13.354Z,89.10
2018-08-28T08:24:44.987Z,85.30
2018-08-28T08:27:16.957Z,83.30
2018-08-28T08:29:47.297Z,82.80
2018-08-28T08:32:17.677Z,86.90
2018-08-28T08:34:48.047Z,80.20
2018-08-28T08:37:18.390Z,78.10
2018-08-28T08:39:49.209Z,79.20
2018-08-28T08:42:20.308Z,79.10
2018-08-28T08:44:50.717Z,79.60
2018-08-28T08:47:21.131Z,76.90
2018-08-28T08:49:51.565Z,75.70
2018-08-28T08:52:22.285Z,76.20
2018-08-28T08:54:52.676Z,78.00
2018-08-28T08:57:23.444Z,77.80
2018-08-28T08:59:54.324Z,79.00
2018-08-28T09:02:24.728Z,79.40
2018-08-28T09:04:55.653Z,78.80
2018-08-28T09:07:26.105Z,78.90
2018-08-28T09:09:56.543Z,77.50
2018-08-28T09:12:27.174Z,76.80
2018-08-28T09:14:57.627Z,76.60
2018-08-28T09:17:28.375Z,75.50
2018-08-28T09:19:58.768Z,75.30
2018-08-28T09:22:30.525Z,74.40
2018-08-28T09:25:00.986Z,74.30
2018-08-28T09:27:32.292Z,72.90
2018-08-28T09:30:02.976Z,74.10
2018-08-28T09:32:33.385Z,72.60
2018-08-28T09:35:04.708Z,74.40
2018-08-28T09:37:35.202Z,74.90
2018-08-28T09:40:05.769Z,74.30
2018-08-28T09:42:36.104Z,73.80
2018-08-28T09:45:07.846Z,71.10
2018-08-28T09:47:38.174Z,70.80
2018-08-28T09:50:08.641Z,72.50
2018-08-28T09:52:38.944Z,72.60
2018-08-28T09:55:09.451Z,71.40
2018-08-28T09:57:40.437Z,66.50
2018-08-28T10:00:16.302Z,67.50
2018-08-28T10:02:46.708Z,61.60
2018-08-28T10:05:17.018Z,58.40
2018-08-28T10:07:47.365Z,61.70
2018-08-28T10:10:17.781Z,57.40
2018-08-28T10:12:48.212Z,56.70
2018-08-28T10:15:18.528Z,58.50
2018-08-28T10:17:48.852Z,58.90
2018-08-28T10:20:19.182Z,57.90
2018-08-28T10:22:49.564Z,56.90
2018-08-28T10:25:19.790Z,55.20
2018-08-28T10:27:50.160Z,53.20
2018-08-28T10:30:20.649Z,51.60
2018-08-28T10:32:50.880Z,52.40
2018-08-28T10:35:21.291Z,49.80
2018-08-28T10:37:51.698Z,50.20
2018-08-28T10:40:22.549Z,49.10
2018-08-28T10:42:53.193Z,48.80
2018-08-28T10:45:23.885Z,48.30
2018-08-28T10:47:54.229Z,48.30
2018-08-28T10:50:26.070Z,49.50
2018-08-28T10:52:56.844Z,51.00
2018-08-28T10:55:28.799Z,51.10
2018-08-28T10:57:59.170Z,50.10
2018-08-28T11:00:29.621Z,50.40
2018-08-28T11:03:03.109Z,51.30
2018-08-28T11:05:34.047Z,51.20
2018-08-28T11:08:07.213Z,52.30
2018-08-28T11:10:37.747Z,50.10
2018-08-28T11:13:10.325Z,48.90
2018-08-28T11:15:41.237Z,48.10
2018-08-28T11:18:11.934Z,48.00
2018-08-28T11:20:42.324Z,48.00
2018-08-28T11:23:12.648Z,47.10
2018-08-28T11:25:43.149Z,44.20
2018-08-28T11:28:13.520Z,40.30
2018-08-28T11:30:44.920Z,38.80
2018-08-28T11:33:15.360Z,38.70
2018-08-28T11:35:45.850Z,38.70
2018-08-28T11:38:16.550Z,35.70
2018-08-28T11:40:46.975Z,36.00
2018-08-28T11:43:17.325Z,37.50
2018-08-28T11:45:48.374Z,40.90
2018-08-28T11:48:20.244Z,41.70
2018-08-28T11:50:50.608Z,40.70
2018-08-28T11:53:21.920Z,38.50
2018-08-28T11:55:52.551Z,37.60
2018-08-28T11:58:22.937Z,38.40
2018-08-28T12:00:53.379Z,39.60
2018-08-28T12:03:24.113Z,40.90
2018-08-28T12:05:57.394Z,42.20
2018-08-28T12:08:29.448Z,42.90
2018-08-28T12:10:59.828Z,43.80
2018-08-28T12:13:30.279Z,44.00
2018-08-28T12:16:01.463Z,45.20
2018-08-28T12:18:31.812Z,43.30
2018-08-28T12:21:02.164Z,42.80
2018-08-28T12:23:34.321Z,43.00
2018-08-28T12:26:05.837Z,40.90
2018-08-28T12:28:36.230Z,39.70
2018-08-28T12:31:07.909Z,38.70
2018-08-28T12:33:42.088Z,39.10
2018-08-28T12:36:12.647Z,40.60
2018-08-28T12:38:43.021Z,41.40
2018-08-28T12:41:13.483Z,41.50
2018-08-28T12:43:46.419Z,40.50
2018-08-28T12:46:16.829Z,39.50
2018-08-28T12:48:47.281Z,36.40
2018-08-28T12:51:17.700Z,36.30
2018-08-28T12:53:48.003Z,37.30
2018-08-28T12:56:18.501Z,36.60
2018-08-28T12:58:49.619Z,37.90
2018-08-28T13:01:22.675Z,36.80
2018-08-28T13:04:10.371Z,35.90
2018-08-28T13:06:42.673Z,36.20
2018-08-28T13:09:13.383Z,36.80
2018-08-28T13:11:43.789Z,37.20
2018-08-28T13:14:15.057Z,37.80
2018-08-28T13:16:45.757Z,38.60
2018-08-28T13:19:17.813Z,39.30
2018-08-28T13:21:48.456Z,39.80
2018-08-28T13:24:18.905Z,41.50
2018-08-28T13:26:49.292Z,41.40
2018-08-28T13:29:20.633Z,41.80
2018-08-28T13:31:51.408Z,42.00
2018-08-28T13:34:21.915Z,40.80
2018-08-28T13:36:52.444Z,40.90
2018-08-28T13:39:25.022Z,42.70
2018-08-28T13:41:55.469Z,42.50
2018-08-28T13:44:28.637Z,41.60
2018-08-28T13:46:59.776Z,42.20
2018-08-28T13:49:31.865Z,42.30
2018-08-28T13:52:02.380Z,42.20
2018-08-28T13:54:33.436Z,43.50
2018-08-28T13:57:04.405Z,42.30
2018-08-28T13:59:34.697Z,41.60
2018-08-28T14:02:05.134Z,42.00
2018-08-28T14:04:35.843Z,42.10
2018-08-28T14:07:07.024Z,39.80
2018-08-28T14:09:37.372Z,40.90
2018-08-28T14:12:07.740Z,41.50
2018-08-28T14:14:38.327Z,41.50
2018-08-28T14:17:09.224Z,40.70
2018-08-28T14:19:39.799Z,42.70
2018-08-28T14:22:10.447Z,41.10
2018-08-28T14:24:41.201Z,40.20
2018-08-28T14:27:13.094Z,39.90
2018-08-28T14:29:44.562Z,40.80
2018-08-28T14:32:15.194Z,41.00
2018-08-28T14:34:48.444Z,41.50
2018-08-28T14:37:18.887Z,40.10
2018-08-28T14:39:49.920Z,41.20
2018-08-28T14:42:21.539Z,39.90
2018-08-28T14:44:53.747Z,40.90
2018-08-28T14:47:27.310Z,41.40
2018-08-28T14:49:58.092Z,40.40
2018-08-28T14:52:28.749Z,40.40
2018-08-28T14:54:59.230Z,41.10
2018-08-28T14:57:31.822Z,39.50
2018-08-28T15:00:03.377Z,39.30
2018-08-28T15:02:34.531Z,38.40
2018-08-28T15:05:05.130Z,38.60
2018-08-28T15:07:37.693Z,37.60
2018-08-28T15:10:18.786Z,38.40
2018-08-28T15:12:53.729Z,38.50
2018-08-28T15:15:24.869Z,38.30
2018-08-28T15:17:56.024Z,39.10
2018-08-28T15:20:27.541Z,39.20
2018-08-28T15:23:00.991Z,39.60
2018-08-28T15:25:31.881Z,38.70
2018-08-28T15:28:08.366Z,38.40
2018-08-28T15:30:39.010Z,39.20
2018-08-28T15:33:09.358Z,38.80
2018-08-28T15:35:40.245Z,38.40
2018-08-28T15:38:10.741Z,36.80
2018-08-28T15:40:41.299Z,35.90
2018-08-28T15:43:16.671Z,36.60
2018-08-28T15:45:47.090Z,36.40
2018-08-28T15:48:17.581Z,36.30
2018-08-28T15:50:48.108Z,36.50
2018-08-28T15:53:18.783Z,37.50
2018-08-28T15:55:49.098Z,37.50
2018-08-28T15:58:19.648Z,37.50
2018-08-28T16:00:50.021Z,37.50
2018-08-28T16:03:20.529Z,37.40
2018-08-28T16:05:50.842Z,37.10
2018-08-28T16:08:21.601Z,37.50
2018-08-28T16:10:51.998Z,37.60
2018-08-28T16:13:24.069Z,37.10
2018-08-28T16:15:54.440Z,37.30
2018-08-28T16:18:24.917Z,37.40
2018-08-28T16:20:55.234Z,37.40
2018-08-28T16:23:30.887Z,37.80
2018-08-28T16:26:02.129Z,38.00
2018-08-28T16:28:32.501Z,37.90
2018-08-28T16:31:04.553Z,37.50
2018-08-28T16:33:35.295Z,38.10
2018-08-28T16:36:06.341Z,39.10
2018-08-28T16:38:36.693Z,40.10
2018-08-28T16:41:08.764Z,41.30
2018-08-28T16:43:39.074Z,42.40
2018-08-28T16:46:09.477Z,43.30
2018-08-28T16:48:40.196Z,43.60
2018-08-28T16:51:11.056Z,44.20
2018-08-28T16:53:41.516Z,44.60
2018-08-28T16:56:12.138Z,45.50
2018-08-28T16:58:42.577Z,45.40
2018-08-28T17:01:13.341Z,45.50
2018-08-28T17:03:43.699Z,45.80
2018-08-28T17:06:14.935Z,46.20
2018-08-28T17:08:45.414Z,46.30
2018-08-28T17:11:15.839Z,46.90
2018-08-28T17:13:46.261Z,47.60
2018-08-28T17:16:16.657Z,48.70
2018-08-28T17:18:46.985Z,50.00
2018-08-28T17:21:19.006Z,50.90
2018-08-28T17:23:50.083Z,52.90
2018-08-28T17:26:20.804Z,54.10
2018-08-28T17:28:51.729Z,54.70
2018-08-28T17:31:22.403Z,55.90
2018-08-28T17:33:53.770Z,56.60
2018-08-28T17:36:25.549Z,57.20
2018-08-28T17:38:56.065Z,57.20
2018-08-28T17:41:30.278Z,57.50
2018-08-28T17:44:01.706Z,58.00
2018-08-28T17:46:32.086Z,58.40
2018-08-28T17:49:03.141Z,58.60
2018-08-28T17:51:33.465Z,58.80
2018-08-28T17:54:04.517Z,59.20
2018-08-28T17:56:37.545Z,59.30
2018-08-28T17:59:07.944Z,60.40
2018-08-28T18:01:38.914Z,60.20
2018-08-28T18:04:09.551Z,60.70
2018-08-28T18:06:40.233Z,61.30
2018-08-28T18:09:11.220Z,61.90
2018-08-28T18:11:41.606Z,61.90
2018-08-28T18:14:12.785Z,62.80
2018-08-28T18:16:44.599Z,63.50
2018-08-28T18:19:15.289Z,63.30
2018-08-28T18:21:45.733Z,63.80
2018-08-28T18:24:17.083Z,64.00
2018-08-28T18:26:47.794Z,64.30
2018-08-28T18:29:18.203Z,64.60
2018-08-28T18:31:49.150Z,64.80
2018-08-28T18:34:19.828Z,64.20
2018-08-28T18:36:50.422Z,64.10
2018-08-28T18:39:21.140Z,64.50
2018-08-28T18:41:52.881Z,65.40
2018-08-28T18:44:24.844Z,65.20
2018-08-28T18:46:55.297Z,65.80
2018-08-28T18:49:26.182Z,66.30
2018-08-28T18:51:56.935Z,66.30
2018-08-28T18:54:28.032Z,66.10
2018-08-28T18:56:58.511Z,66.60
2018-08-28T18:59:29.865Z,66.90
2018-08-28T19:02:00.194Z,67.30
2018-08-28T19:04:30.828Z,68.00
2018-08-28T19:07:01.320Z,68.90
2018-08-28T19:09:35.011Z,69.10
2018-08-28T19:12:05.400Z,69.40
2018-08-28T19:14:36.071Z,69.70
2018-08-28T19:17:06.733Z,69.80
2018-08-28T19:19:37.365Z,69.80
2018-08-28T19:22:08.165Z,69.80
2018-08-28T19:24:38.671Z,70.10
2018-08-28T19:27:10.384Z,70.20
2018-08-28T19:29:41.094Z,70.20
2018-08-28T19:32:11.561Z,69.90
2018-08-28T19:34:42.607Z,70.30
2018-08-28T19:37:12.946Z,69.90
2018-08-28T19:39:43.361Z,70.20
2018-08-28T19:42:13.739Z,70.80
2018-08-28T19:44:44.135Z,70.90
2018-08-28T19:47:14.835Z,71.00
2018-08-28T19:49:45.237Z,72.00
2018-08-28T19:52:15.980Z,72.00
2018-08-28T19:54:46.772Z,72.00
2018-08-28T19:57:17.405Z,72.00
2018-08-28T19:59:47.837Z,72.00
2018-08-28T20:02:18.189Z,72.40
2018-08-28T20:04:49.889Z,73.10
2018-08-28T20:07:20.718Z,73.30
2018-08-28T20:09:51.645Z,73.20
2018-08-28T20:12:22.486Z,73.20
2018-08-28T20:14:52.880Z,72.30
2018-08-28T20:17:23.605Z,72.50
2018-08-28T20:19:53.993Z,72.60
2018-08-28T20:22:25.509Z,73.00
2018-08-28T20:24:55.922Z,72.90
2018-08-28T20:27:26.241Z,73.50
2018-08-28T20:29:56.691Z,73.70
2018-08-28T20:32:27.382Z,73.90
2018-08-28T20:34:57.777Z,73.80
2018-08-28T20:37:28.245Z,73.70
2018-08-28T20:39:58.538Z,74.10
2018-08-28T20:42:28.913Z,74.50
2018-08-28T20:44:59.430Z,75.20
2018-08-28T20:47:29.765Z,74.90
2018-08-28T20:50:00.105Z,74.70
2018-08-28T20:52:31.589Z,75.90
2018-08-28T20:55:01.984Z,75.20
2018-08-28T20:57:32.389Z,75.90
2018-08-28T21:00:03.094Z,75.80
2018-08-28T21:02:33.680Z,75.90
2018-08-28T21:05:04.446Z,77.10
2018-08-28T21:07:35.384Z,77.30
2018-08-28T21:10:06.498Z,77.90
2018-08-28T21:12:36.906Z,78.30
2018-08-28T21:15:07.392Z,78.40
2018-08-28T21:17:37.761Z,78.60
2018-08-28T21:20:09.358Z,78.40
2018-08-28T21:22:40.854Z,78.70
2018-08-28T21:25:12.114Z,78.80
2018-08-28T21:27:42.676Z,79.10
2018-08-28T21:30:13.593Z,79.50
2018-08-28T21:32:44.698Z,79.60
2018-08-28T21:35:16.487Z,79.80
2018-08-28T21:37:46.913Z,79.50
2018-08-28T21:40:17.408Z,79.90
2018-08-28T21:42:47.879Z,79.90
2018-08-28T21:45:18.966Z,80.20
2018-08-28T21:47:49.514Z,80.20
2018-08-28T21:50:20.878Z,80.80
2018-08-28T21:52:51.558Z,82.00
2018-08-28T21:55:22.044Z,81.10
2018-08-28T21:57:53.019Z,81.40
2018-08-28T22:00:23.684Z,81.60
2018-08-28T22:02:54.229Z,81.70
2018-08-28T22:05:30.139Z,82.40
2018-08-28T22:08:01.922Z,81.50
2018-08-28T22:10:32.855Z,82.00
2018-08-28T22:13:03.209Z,82.10
2018-08-28T22:15:34.547Z,82.20
2018-08-28T22:18:06.143Z,82.60
2018-08-28T22:20:36.558Z,82.60
2018-08-28T22:23:06.965Z,82.30
2018-08-28T22:25:37.337Z,83.10
2018-08-28T22:28:07.838Z,83.20
2018-08-28T22:30:38.793Z,83.60
2018-08-28T22:33:09.165Z,84.10
2018-08-28T22:35:40.396Z,84.50
2018-08-28T22:38:10.869Z,85.00
2018-08-28T22:40:41.710Z,85.20
2018-08-28T22:43:12.202Z,85.30
2018-08-28T22:45:42.597Z,85.70
2018-08-28T22:48:13.060Z,86.20
2018-08-28T22:50:43.457Z,86.30
2018-08-28T22:53:13.907Z,86.80
2018-08-28T22:55:44.448Z,86.30
2018-08-28T22:58:14.844Z,85.60
2018-08-28T23:00:46.199Z,85.40
2018-08-28T23:03:16.571Z,85.60
2018-08-28T23:05:46.935Z,86.10
2018-08-28T23:08:17.283Z,85.80
2018-08-28T23:10:47.853Z,85.90
2018-08-28T23:13:18.648Z,86.10
2018-08-28T23:15:49.983Z,86.70
2018-08-28T23:18:20.911Z,86.90
2018-08-28T23:20:51.476Z,87.60
2018-08-28T23:23:21.814Z,87.60
2018-08-28T23:25:52.972Z,87.80
2018-08-28T23:28:23.365Z,88.70
2018-08-28T23:30:53.797Z,87.90
2018-08-28T23:33:25.002Z,87.50
2018-08-28T23:35:55.433Z,87.90
2018-08-28T23:38:25.862Z,87.90
2018-08-28T23:40:56.228Z,87.60
2018-08-28T23:43:26.675Z,87.30
2018-08-28T23:45:57.071Z,87.40
2018-08-28T23:48:28.429Z,87.50
2018-08-28T23:50:58.817Z,88.70
2018-08-28T23:53:29.256Z,88.30
2018-08-28T23:55:59.691Z,88.60
2018-08-28T23:58:30.108Z,88.70
